Time;durP1;ratioP1;P1;durP2;ratioP2;P2;SDS_P1;SDS_P2;PMS_P1;PMS_P2;Temp;Humidity;BMP_temperature;BMP_pressure;BME280_temperature;BME280_humidity;BME280_pressure;Samples;Min_cycle;Max_cycle;Signal;HPM_P1;HPM_P2
2021/11/24 00:00:10;;;;;;;15.75;6.28;;;;;;;;;;5108811;28;20028;-68
2021/11/24 00:02:37;;;;;;;11.05;6.15;;;;;;;;;;5108449;28;20055;-68
2021/11/24 00:05:03;;;;;;;9.57;5.55;;;;;;;;;;5111813;28;20036;-68
2021/11/24 00:07:29;;;;;;;9.88;5.35;;;;;;;;;;5114980;28;20016;-68
2021/11/24 00:09:55;;;;;;;9.73;5.60;;;;;;;;;;5114031;28;20039;-68
2021/11/24 00:12:21;;;;;;;13.77;5.88;;;;;;;;;;5112756;28;20039;-68
2021/11/24 00:14:47;;;;;;;11.60;6.03;;;;;;;;;;5112349;28;20032;-68
2021/11/24 00:17:13;;;;;;;8.60;5.38;;;;;;;;;;5111867;28;20027;-68
2021/11/24 00:19:39;;;;;;;10.15;5.03;;;;;;;;;;5114079;28;23071;-68
2021/11/24 00:22:05;;;;;;;9.73;5.30;;;;;;;;;;5114849;28;20032;-68
2021/11/24 00:24:31;;;;;;;10.02;5.50;;;;;;;;;;5111979;28;20079;-69
2021/11/24 00:26:57;;;;;;;10.15;5.20;;;;;;;;;;5111988;28;20236;-68
2021/11/24 00:29:23;;;;;;;10.90;5.85;;;;;;;;;;5112565;28;20053;-69
2021/11/24 00:31:49;;;;;;;15.95;5.68;;;;;;;;;;5112158;28;20042;-69
2021/11/24 00:34:15;;;;;;;10.00;5.40;;;;;;;;;;5110300;28;20026;-69
2021/11/24 00:36:41;;;;;;;13.93;7.32;;;;;;;;;;5112158;28;20106;-69
2021/11/24 00:39:07;;;;;;;12.95;7.93;;;;;;;;;;5112006;28;20028;-69
2021/11/24 00:41:33;;;;;;;13.18;6.53;;;;;;;;;;5111764;28;20063;-69
2021/11/24 00:43:59;;;;;;;10.32;5.20;;;;;;;;;;5112176;28;20039;-69
2021/11/24 00:46:25;;;;;;;8.15;4.35;;;;;;;;;;5114120;28;20071;-69
2021/11/24 00:48:51;;;;;;;8.32;4.07;;;;;;;;;;5111979;28;20431;-69
2021/11/24 00:51:17;;;;;;;8.73;3.90;;;;;;;;;;5111674;28;20125;-69
2021/11/24 00:53:43;;;;;;;6.85;4.05;;;;;;;;;;5111464;28;20027;-69
2021/11/24 00:56:09;;;;;;;6.60;3.15;;;;;;;;;;5111721;28;20039;-69
2021/11/24 00:58:35;;;;;;;6.70;3.10;;;;;;;;;;5113803;28;20034;-68
2021/11/24 01:01:01;;;;;;;8.07;4.20;;;;;;;;;;5113333;28;20465;-69
2021/11/24 01:03:27;;;;;;;9.90;3.55;;;;;;;;;;5111023;28;20126;-68
2021/11/24 01:05:53;;;;;;;168.13;8.80;;;;;;;;;;5111622;28;20116;-69
2021/11/24 01:08:19;;;;;;;48.95;6.57;;;;;;;;;;5111771;28;20384;-69
2021/11/24 01:10:45;;;;;;;17.13;6.43;;;;;;;;;;5112059;28;20032;-67
2021/11/24 01:13:12;;;;;;;16.55;7.75;;;;;;;;;;5114384;28;20031;-67
2021/11/24 01:15:38;;;;;;;15.98;8.95;;;;;;;;;;5109940;28;20020;-69
2021/11/24 01:18:05;;;;;;;25.73;12.18;;;;;;;;;;5111619;28;20023;-69
2021/11/24 01:20:31;;;;;;;21.10;11.15;;;;;;;;;;5110716;28;20066;-69
2021/11/24 01:22:58;;;;;;;17.77;10.02;;;;;;;;;;5111520;28;20036;-69
2021/11/24 01:25:24;;;;;;;23.27;10.20;;;;;;;;;;5113833;28;20081;-69
2021/11/24 01:27:50;;;;;;;20.80;10.30;;;;;;;;;;5112348;28;20019;-69
2021/11/24 01:30:16;;;;;;;12.75;7.25;;;;;;;;;;5110356;28;20023;-69
2021/11/24 01:32:42;;;;;;;21.73;8.73;;;;;;;;;;5111039;28;20055;-69
2021/11/24 01:35:08;;;;;;;39.88;12.70;;;;;;;;;;5111017;28;20020;-69
2021/11/24 01:37:35;;;;;;;16.65;7.97;;;;;;;;;;5113299;28;20015;-70
2021/11/24 01:40:04;;;;;;;39.83;9.18;;;;;;;;;;5112756;28;20023;-68
2021/11/24 01:42:30;;;;;;;36.47;10.95;;;;;;;;;;5111037;28;20031;-69
2021/11/24 01:44:56;;;;;;;47.40;9.25;;;;;;;;;;5109901;28;20042;-69
2021/11/24 01:47:22;;;;;;;41.25;9.57;;;;;;;;;;5110975;28;20028;-69
2021/11/24 01:49:48;;;;;;;50.42;8.48;;;;;;;;;;5111284;28;20032;-69
2021/11/24 01:52:15;;;;;;;62.97;9.63;;;;;;;;;;5114549;28;20386;-69
2021/11/24 01:54:41;;;;;;;69.43;8.35;;;;;;;;;;5111664;28;20114;-68
2021/11/24 01:57:07;;;;;;;73.15;9.40;;;;;;;;;;5110521;28;20023;-69
2021/11/24 01:59:33;;;;;;;26.35;10.15;;;;;;;;;;5110522;28;20035;-69
2021/11/24 02:01:59;;;;;;;16.20;6.47;;;;;;;;;;5110673;28;20028;-69
2021/11/24 02:04:25;;;;;;;8.80;4.38;;;;;;;;;;5112584;28;20036;-69
2021/11/24 02:06:52;;;;;;;4.72;2.45;;;;;;;;;;5112418;28;20093;-69
2021/11/24 02:09:18;;;;;;;10.75;5.45;;;;;;;;;;5110594;28;20069;-69
2021/11/24 02:11:45;;;;;;;149.23;7.80;;;;;;;;;;5110390;28;20054;-67
2021/11/24 02:14:12;;;;;;;37.03;5.93;;;;;;;;;;5109959;28;20034;-69
2021/11/24 02:16:56;;;;;;;32.45;5.30;;;;;;;;;;5110772;28;20072;-70
2021/11/24 02:19:22;;;;;;;70.93;6.53;;;;;;;;;;5109545;28;20059;-70
2021/11/24 02:21:53;;;;;;;27.27;5.68;;;;;;;;;;5110905;28;20024;-69
2021/11/24 02:24:20;;;;;;;10.73;5.80;;;;;;;;;;5110170;28;20043;-69
2021/11/24 02:26:46;;;;;;;11.65;6.18;;;;;;;;;;5109650;28;20076;-69
2021/11/24 02:29:12;;;;;;;10.07;5.43;;;;;;;;;;5110496;28;20111;-70
2021/11/24 02:31:38;;;;;;;8.80;4.82;;;;;;;;;;5109704;28;20035;-70
2021/11/24 02:34:04;;;;;;;11.73;5.38;;;;;;;;;;5113047;28;20028;-69
2021/11/24 02:36:31;;;;;;;11.05;6.03;;;;;;;;;;5110111;28;20024;-68
2021/11/24 02:38:59;;;;;;;11.68;5.00;;;;;;;;;;5110068;28;20026;-70
2021/11/24 02:41:25;;;;;;;8.73;3.83;;;;;;;;;;5109703;28;20015;-68
2021/11/24 02:43:51;;;;;;;10.25;4.55;;;;;;;;;;5108590;28;20067;-67
2021/11/24 02:46:17;;;;;;;8.95;4.28;;;;;;;;;;5113669;28;20048;-67
2021/11/24 02:48:43;;;;;;;13.07;4.25;;;;;;;;;;5109880;28;20031;-67
2021/11/24 02:51:09;;;;;;;8.02;3.90;;;;;;;;;;5109714;28;20088;-68
2021/11/24 02:53:36;;;;;;;9.20;4.70;;;;;;;;;;5108612;28;20110;-67
2021/11/24 02:56:03;;;;;;;10.23;4.20;;;;;;;;;;5109504;28;20024;-69
2021/11/24 02:58:29;;;;;;;35.70;5.32;;;;;;;;;;5111919;28;20055;-70
2021/11/24 03:00:57;;;;;;;20.95;5.03;;;;;;;;;;5110724;28;20077;-67
2021/11/24 03:03:23;;;;;;;65.95;5.10;;;;;;;;;;5109123;28;20027;-67
2021/11/24 03:05:49;;;;;;;8.98;4.22;;;;;;;;;;5109084;28;20501;-69
2021/11/24 03:08:15;;;;;;;8.43;4.13;;;;;;;;;;5109663;28;20027;-68
2021/11/24 03:10:41;;;;;;;59.58;7.55;;;;;;;;;;5109264;28;20119;-70
2021/11/24 03:13:07;;;;;;;21.55;6.63;;;;;;;;;;5113127;28;20035;-69
2021/11/24 03:15:34;;;;;;;11.77;5.22;;;;;;;;;;5108422;28;20114;-68
2021/11/24 03:18:00;;;;;;;74.40;6.78;;;;;;;;;;5109346;28;20027;-67
2021/11/24 03:20:28;;;;;;;12.30;4.90;;;;;;;;;;5109252;28;20057;-69
2021/11/24 03:22:55;;;;;;;8.13;3.90;;;;;;;;;;5108588;28;20032;-68
2021/11/24 03:25:21;;;;;;;9.55;4.57;;;;;;;;;;5111898;28;20032;-69
2021/11/24 03:27:47;;;;;;;48.45;3.83;;;;;;;;;;5109261;28;20042;-69
2021/11/24 03:30:16;;;;;;;24.15;3.38;;;;;;;;;;5108912;28;20035;-69
2021/11/24 03:32:42;;;;;;;72.28;3.85;;;;;;;;;;5108514;28;20083;-68
2021/11/24 03:35:08;;;;;;;6.32;3.30;;;;;;;;;;5109051;28;20024;-68
2021/11/24 03:37:35;;;;;;;41.15;4.10;;;;;;;;;;5110108;28;20046;-68
2021/11/24 03:40:01;;;;;;;6.88;3.67;;;;;;;;;;5109969;28;20232;-68
2021/11/24 03:42:28;;;;;;;7.28;3.63;;;;;;;;;;5108978;28;20031;-69
2021/11/24 03:44:54;;;;;;;7.30;2.97;;;;;;;;;;5108519;28;20031;-68
2021/11/24 03:47:20;;;;;;;5.75;3.28;;;;;;;;;;5108483;28;20550;-69
2021/11/24 03:49:46;;;;;;;5.75;3.00;;;;;;;;;;5108896;28;20491;-68
2021/11/24 03:52:12;;;;;;;9.45;3.35;;;;;;;;;;5111980;28;20034;-69
2021/11/24 03:54:38;;;;;;;7.03;3.22;;;;;;;;;;5108358;28;20549;-69
2021/11/24 03:57:05;;;;;;;7.55;3.08;;;;;;;;;;5108307;28;20053;-68
2021/11/24 03:59:31;;;;;;;8.95;3.28;;;;;;;;;;5108726;28;20027;-69
2021/11/24 04:01:57;;;;;;;6.78;2.95;;;;;;;;;;5108049;28;20027;-68
2021/11/24 04:04:23;;;;;;;6.00;2.70;;;;;;;;;;5111438;28;20035;-70
2021/11/24 04:06:49;;;;;;;4.72;2.63;;;;;;;;;;5109085;28;20479;-69
2021/11/24 04:09:15;;;;;;;9.48;2.80;;;;;;;;;;5108398;28;20153;-69
2021/11/24 04:11:41;;;;;;;4.93;2.80;;;;;;;;;;5108305;28;20058;-69
2021/11/24 04:14:07;;;;;;;5.80;2.88;;;;;;;;;;5108678;28;20035;-69
2021/11/24 04:16:33;;;;;;;4.47;2.50;;;;;;;;;;5110086;28;20077;-69
2021/11/24 04:19:02;;;;;;;5.20;2.53;;;;;;;;;;5109816;28;20391;-67
2021/11/24 04:21:29;;;;;;;5.28;2.63;;;;;;;;;;5110311;28;20034;-67
2021/11/24 04:23:55;;;;;;;9.45;2.42;;;;;;;;;;5108160;28;20042;-66
2021/11/24 04:26:21;;;;;;;6.32;2.03;;;;;;;;;;5108099;28;20099;-67
2021/11/24 04:28:47;;;;;;;5.47;2.55;;;;;;;;;;5092185;28;20454;-68
2021/11/24 04:31:13;;;;;;;291.25;12.95;;;;;;;;;;5111250;28;20048;-68
2021/11/24 04:33:39;;;;;;;52.45;5.07;;;;;;;;;;5103731;28;20036;-67
2021/11/24 04:36:07;;;;;;;19.25;3.97;;;;;;;;;;5105505;28;20024;-68
2021/11/24 04:38:33;;;;;;;11.13;3.57;;;;;;;;;;5100905;28;20479;-67
2021/11/24 04:40:59;;;;;;;9.02;2.78;;;;;;;;;;5102585;28;20071;-67
2021/11/24 04:43:29;;;;;;;7.38;2.40;;;;;;;;;;5104030;28;20111;-67
2021/11/24 04:45:56;;;;;;;8.88;2.85;;;;;;;;;;5110277;28;20011;-68
2021/11/24 04:48:22;;;;;;;4.88;2.70;;;;;;;;;;5108402;28;20130;-67
2021/11/24 04:50:48;;;;;;;4.18;2.30;;;;;;;;;;5111050;28;20034;-67
2021/11/24 04:53:14;;;;;;;3.97;2.00;;;;;;;;;;5113407;28;20030;-67
2021/11/24 04:55:40;;;;;;;4.78;2.05;;;;;;;;;;5113076;28;20032;-68
2021/11/24 04:58:06;;;;;;;45.88;3.13;;;;;;;;;;5114171;28;20023;-67
2021/11/24 05:00:32;;;;;;;44.55;3.60;;;;;;;;;;5111812;28;20536;-67
2021/11/24 05:02:58;;;;;;;252.63;13.95;;;;;;;;;;5109938;28;20023;-67
2021/11/24 05:05:29;;;;;;;12.05;2.60;;;;;;;;;;5111580;28;20042;-67
2021/11/24 05:07:55;;;;;;;5.05;2.47;;;;;;;;;;5111302;28;20026;-67
2021/11/24 05:10:21;;;;;;;4.55;2.20;;;;;;;;;;5114580;28;20694;-67
2021/11/24 05:12:47;;;;;;;5.13;2.45;;;;;;;;;;5112167;28;20475;-67
2021/11/24 05:15:20;;;;;;;4.50;2.22;;;;;;;;;;5110083;28;20023;-67
2021/11/24 05:17:49;;;;;;;4.03;2.17;;;;;;;;;;5111534;28;20039;-67
2021/11/24 05:20:19;;;;;;;3.53;2.00;;;;;;;;;;5111291;28;20110;-67
2021/11/24 05:22:48;;;;;;;56.13;2.83;;;;;;;;;;5111839;28;20490;-67
2021/11/24 05:25:14;;;;;;;27.27;2.88;;;;;;;;;;5114417;28;20103;-67
2021/11/24 05:27:40;;;;;;;62.88;2.78;;;;;;;;;;5111546;28;20107;-67
2021/11/24 05:30:07;;;;;;;37.90;2.50;;;;;;;;;;5110521;28;20020;-68
2021/11/24 05:32:33;;;;;;;4.30;1.95;;;;;;;;;;5109865;28;20104;-67
2021/11/24 05:34:59;;;;;;;4.22;2.08;;;;;;;;;;5111062;28;20032;-67
2021/11/24 05:37:25;;;;;;;5.00;2.10;;;;;;;;;;5112250;28;20047;-67
2021/11/24 05:39:51;;;;;;;120.95;4.60;;;;;;;;;;5113135;28;20088;-67
2021/11/24 05:42:18;;;;;;;23.23;3.13;;;;;;;;;;5110833;28;20030;-67
2021/11/24 05:44:47;;;;;;;6.38;3.00;;;;;;;;;;5110645;28;20089;-67
2021/11/24 05:47:49;;;;;;;10.20;3.20;;;;;;;;;;5110712;27;20247;-67
2021/11/24 05:50:00;;;;;;;4.15;2.15;;;;;;;;;;5095966;28;20028;-67
2021/11/24 05:52:26;;;;;;;4.35;1.90;;;;;;;;;;5113474;28;20039;-68
2021/11/24 05:54:52;;;;;;;4.28;2.25;;;;;;;;;;5112571;28;20036;-67
2021/11/24 05:57:18;;;;;;;4.47;2.47;;;;;;;;;;5110367;28;20027;-67
2021/11/24 05:59:44;;;;;;;3.00;1.73;;;;;;;;;;5110249;28;20088;-67
2021/11/24 06:02:10;;;;;;;3.95;1.67;;;;;;;;;;5110054;28;20028;-68
2021/11/24 06:04:35;;;;;;;3.47;1.80;;;;;;;;;;5111945;28;20420;-68
2021/11/24 06:07:01;;;;;;;3.47;1.85;;;;;;;;;;5108761;28;20031;-68
2021/11/24 06:09:27;;;;;;;3.15;1.98;;;;;;;;;;5105528;28;20102;-67
2021/11/24 06:11:53;;;;;;;5.82;2.33;;;;;;;;;;5105379;28;20098;-68
2021/11/24 06:14:19;;;;;;;4.38;2.00;;;;;;;;;;5104936;28;20035;-68
2021/11/24 06:16:45;;;;;;;8.85;2.20;;;;;;;;;;5103476;28;20023;-67
2021/11/24 06:19:11;;;;;;;5.53;2.50;;;;;;;;;;5108624;28;20028;-68
2021/11/24 06:21:37;;;;;;;7.53;3.90;;;;;;;;;;5106581;28;20438;-68
2021/11/24 06:24:04;;;;;;;7.57;3.08;;;;;;;;;;5107100;28;20039;-68
2021/11/24 06:26:30;;;;;;;6.18;3.10;;;;;;;;;;5106529;28;20028;-68
2021/11/24 06:28:56;;;;;;;7.13;3.35;;;;;;;;;;5110025;28;20039;-68
2021/11/24 06:31:25;;;;;;;7.55;2.90;;;;;;;;;;5109033;28;20047;-68
2021/11/24 06:33:52;;;;;;;6.60;3.10;;;;;;;;;;5110350;28;20032;-68
2021/11/24 06:36:23;;;;;;;5.82;2.70;;;;;;;;;;5110006;28;20052;-68
2021/11/24 06:38:49;;;;;;;6.18;3.47;;;;;;;;;;5109169;28;20027;-68
2021/11/24 06:41:15;;;;;;;6.53;2.90;;;;;;;;;;5109972;28;20176;-67
2021/11/24 06:43:41;;;;;;;5.55;2.80;;;;;;;;;;5111067;28;20032;-68
2021/11/24 06:46:07;;;;;;;4.57;1.92;;;;;;;;;;5112173;28;20020;-68
2021/11/24 06:48:34;;;;;;;8.20;2.13;;;;;;;;;;5108987;28;20034;-68
2021/11/24 06:51:00;;;;;;;7.70;4.40;;;;;;;;;;5109566;28;20016;-68
2021/11/24 06:53:26;;;;;;;19.55;2.95;;;;;;;;;;5109668;28;20041;-68
2021/11/24 06:55:52;;;;;;;44.42;4.03;;;;;;;;;;5109341;28;20137;-68
2021/11/24 06:58:18;;;;;;;65.82;6.53;;;;;;;;;;5113245;28;20100;-68
2021/11/24 07:00:44;;;;;;;9.48;4.28;;;;;;;;;;5108994;28;20032;-68
2021/11/24 07:03:10;;;;;;;10.98;6.35;;;;;;;;;;5108893;28;20039;-68
2021/11/24 07:05:36;;;;;;;12.13;6.07;;;;;;;;;;5110833;28;20026;-68
2021/11/24 07:08:02;;;;;;;11.05;6.18;;;;;;;;;;5109414;28;20493;-67
2021/11/24 07:10:28;;;;;;;10.00;5.32;;;;;;;;;;5111436;28;20023;-68
2021/11/24 07:12:55;;;;;;;8.70;4.15;;;;;;;;;;5109567;28;20023;-68
2021/11/24 07:15:21;;;;;;;8.18;3.70;;;;;;;;;;5109020;28;20016;-68
2021/11/24 07:17:47;;;;;;;5.55;2.63;;;;;;;;;;5108651;28;20023;-68
2021/11/24 07:20:13;;;;;;;83.32;6.75;;;;;;;;;;5109395;28;20043;-68
2021/11/24 07:22:39;;;;;;;98.68;6.68;;;;;;;;;;5110163;28;20024;-68
2021/11/24 07:25:05;;;;;;;21.50;6.22;;;;;;;;;;5110761;28;20076;-68
2021/11/24 07:27:32;;;;;;;13.45;6.80;;;;;;;;;;5109048;28;20513;-68
2021/11/24 07:29:58;;;;;;;14.43;6.53;;;;;;;;;;5109024;28;20028;-70
2021/11/24 07:32:24;;;;;;;14.98;5.68;;;;;;;;;;5108570;28;20370;-70
2021/11/24 07:34:50;;;;;;;11.68;5.78;;;;;;;;;;5095606;28;20467;-69
2021/11/24 07:37:16;;;;;;;9.00;4.30;;;;;;;;;;5111267;28;20094;-69
2021/11/24 07:39:42;;;;;;;9.70;4.22;;;;;;;;;;5108642;28;20031;-68
2021/11/24 07:42:08;;;;;;;10.52;5.43;;;;;;;;;;5108496;28;20050;-69
2021/11/24 07:44:34;;;;;;;11.35;6.05;;;;;;;;;;5109187;28;20456;-69
2021/11/24 07:47:00;;;;;;;13.27;7.18;;;;;;;;;;5107246;28;20099;-69
2021/11/24 07:49:26;;;;;;;11.02;6.15;;;;;;;;;;5111031;28;20028;-68
2021/11/24 07:51:52;;;;;;;12.32;6.32;;;;;;;;;;5103838;28;20368;-68
2021/11/24 07:54:18;;;;;;;10.18;6.03;;;;;;;;;;5109173;28;20084;-68
2021/11/24 07:56:44;;;;;;;10.07;5.70;;;;;;;;;;5107568;28;20023;-69
2021/11/24 07:59:10;;;;;;;7.85;3.58;;;;;;;;;;5108452;28;20024;-68
2021/11/24 08:01:36;;;;;;;6.57;3.78;;;;;;;;;;5110286;28;20023;-69
2021/11/24 08:04:02;;;;;;;9.60;3.47;;;;;;;;;;5109373;28;20546;-69
2021/11/24 08:06:28;;;;;;;5.40;3.03;;;;;;;;;;5107423;28;20038;-68
2021/11/24 08:08:54;;;;;;;4.57;2.50;;;;;;;;;;5107937;28;20110;-68
2021/11/24 08:11:20;;;;;;;57.47;4.97;;;;;;;;;;5108418;28;20058;-68
2021/11/24 08:13:47;;;;;;;84.90;6.07;;;;;;;;;;5108408;28;20024;-68
2021/11/24 08:16:13;;;;;;;28.55;5.03;;;;;;;;;;5109229;28;20383;-68
2021/11/24 08:18:40;;;;;;;11.00;4.30;;;;;;;;;;5107666;28;20028;-68
2021/11/24 08:21:06;;;;;;;7.57;4.70;;;;;;;;;;5108169;28;20023;-68
2021/11/24 08:23:32;;;;;;;7.13;4.50;;;;;;;;;;5108719;28;20104;-69
2021/11/24 08:25:58;;;;;;;8.55;5.47;;;;;;;;;;5111572;28;20104;-68
2021/11/24 08:28:24;;;;;;;10.02;4.95;;;;;;;;;;5114632;28;20023;-68
2021/11/24 08:30:50;;;;;;;7.55;3.92;;;;;;;;;;5112270;28;20088;-69
2021/11/24 08:33:16;;;;;;;11.18;4.82;;;;;;;;;;5111634;28;20076;-69
2021/11/24 08:35:42;;;;;;;7.43;4.50;;;;;;;;;;5111528;28;21386;-68
2021/11/24 08:38:08;;;;;;;12.68;4.93;;;;;;;;;;5111641;28;20031;-68
2021/11/24 08:40:34;;;;;;;7.68;3.97;;;;;;;;;;5113739;28;20024;-68
2021/11/24 08:43:01;;;;;;;7.18;4.50;;;;;;;;;;5111870;28;20125;-68
2021/11/24 08:45:27;;;;;;;14.55;4.85;;;;;;;;;;5111393;28;20040;-68
2021/11/24 08:47:53;;;;;;;7.43;4.32;;;;;;;;;;5111549;28;20024;-68
2021/11/24 08:50:20;;;;;;;10.10;3.30;;;;;;;;;;5110851;28;20110;-68
2021/11/24 08:52:47;;;;;;;3.92;2.53;;;;;;;;;;5112442;28;20032;-69
2021/11/24 08:55:13;;;;;;;4.43;2.38;;;;;;;;;;5115234;28;20016;-68
2021/11/24 08:57:40;;;;;;;7.32;2.47;;;;;;;;;;5111064;28;20032;-68
2021/11/24 09:00:07;;;;;;;6.03;2.78;;;;;;;;;;5111514;28;20028;-68
2021/11/24 09:02:33;;;;;;;6.80;3.50;;;;;;;;;;5111060;28;20031;-68
2021/11/24 09:04:59;;;;;;;8.50;3.20;;;;;;;;;;5111044;28;20059;-68
2021/11/24 09:07:25;;;;;;;9.25;3.65;;;;;;;;;;5113813;28;20153;-68
2021/11/24 09:09:51;;;;;;;7.88;3.60;;;;;;;;;;5111787;28;20058;-68
2021/11/24 09:12:17;;;;;;;7.15;3.28;;;;;;;;;;5110838;28;20072;-68
2021/11/24 09:14:43;;;;;;;8.13;2.50;;;;;;;;;;5108809;28;20019;-67
2021/11/24 09:17:09;;;;;;;6.45;2.40;;;;;;;;;;5097888;28;20482;-67
2021/11/24 09:19:35;;;;;;;4.82;2.63;;;;;;;;;;5113333;28;20024;-67
2021/11/24 09:22:02;;;;;;;8.25;3.38;;;;;;;;;;5112601;28;20062;-68
2021/11/24 09:24:28;;;;;;;4.63;2.80;;;;;;;;;;5110672;28;20061;-67
2021/11/24 09:26:59;;;;;;;6.95;3.10;;;;;;;;;;5110770;28;20106;-68
2021/11/24 09:29:25;;;;;;;6.70;3.00;;;;;;;;;;5111039;28;20463;-67
2021/11/24 09:31:52;;;;;;;3.63;2.20;;;;;;;;;;5110604;28;20043;-68
2021/11/24 09:34:18;;;;;;;5.32;2.65;;;;;;;;;;5114078;28;20031;-68
2021/11/24 09:36:44;;;;;;;3.10;1.90;;;;;;;;;;5108248;28;20478;-67
2021/11/24 09:39:11;;;;;;;2.40;1.40;;;;;;;;;;5110473;28;20522;-68
2021/11/24 09:41:41;;;;;;;3.45;1.85;;;;;;;;;;5111824;28;20059;-68
2021/11/24 09:44:07;;;;;;;2.92;1.48;;;;;;;;;;5110376;28;20538;-69
2021/11/24 09:46:33;;;;;;;3.78;1.33;;;;;;;;;;5112697;28;20378;-69
2021/11/24 09:49:02;;;;;;;3.60;1.30;;;;;;;;;;5111471;28;20515;-68
2021/11/24 09:51:28;;;;;;;;;;;;;;;;;;5110857;28;20028;-66
2021/11/24 09:53:54;;;;;;;2.05;1.10;;;;;;;;;;5110892;28;19908;-69
2021/11/24 09:56:20;;;;;;;1.63;1.13;;;;;;;;;;5109988;28;20034;-67
2021/11/24 09:58:46;;;;;;;1.70;1.10;;;;;;;;;;5110643;28;20046;-68
2021/11/24 10:01:12;;;;;;;1.50;1.15;;;;;;;;;;5113410;28;20530;-68
2021/11/24 10:03:38;;;;;;;3.63;1.20;;;;;;;;;;5109517;28;20126;-68
2021/11/24 10:06:04;;;;;;;1.63;1.10;;;;;;;;;;5108691;28;20092;-68
2021/11/24 10:08:33;;;;;;;1.95;1.10;;;;;;;;;;5108674;28;20032;-69
2021/11/24 10:11:00;;;;;;;4.00;1.13;;;;;;;;;;5109608;28;20045;-68
2021/11/24 10:13:27;;;;;;;2.45;1.10;;;;;;;;;;5111930;28;20043;-68
2021/11/24 10:15:55;;;;;;;2.92;1.02;;;;;;;;;;5112718;28;20028;-67
2021/11/24 10:18:21;;;;;;;;;;;;;;;;;;5110435;28;20375;-67
2021/11/24 10:20:57;;;;;;;1.60;1.00;;;;;;;;;;5109430;28;19911;-68
2021/11/24 10:23:31;;;;;;;3.20;1.00;;;;;;;;;;5110501;28;20034;-69
2021/11/24 10:26:16;;;;;;;2.65;0.70;;;;;;;;;;5109824;27;20072;-68
2021/11/24 10:28:48;;;;;;;1.45;1.00;;;;;;;;;;5110820;28;20076;-69
2021/11/24 10:31:44;;;;;;;0.80;0.63;;;;;;;;;;5112968;28;20054;-68
2021/11/24 10:34:20;;;;;;;1.38;0.70;;;;;;;;;;5095057;28;20059;-69
2021/11/24 10:36:50;;;;;;;0.60;0.50;;;;;;;;;;5111266;28;20080;-68
2021/11/24 10:39:17;;;;;;;0.90;0.70;;;;;;;;;;5109605;28;20494;-68
2021/11/24 10:41:43;;;;;;;1.08;0.60;;;;;;;;;;5109186;28;20035;-68
2021/11/24 10:44:09;;;;;;;3.22;0.50;;;;;;;;;;5109021;28;20028;-68
2021/11/24 10:46:36;;;;;;;1.13;0.60;;;;;;;;;;5111361;28;20032;-69
2021/11/24 10:49:04;;;;;;;1.13;0.70;;;;;;;;;;5110169;28;20088;-68
2021/11/24 10:51:30;;;;;;;;;;;;;;;;;;5108820;28;20027;-67
2021/11/24 10:54:08;;;;;;;0.40;0.40;;;;;;;;;;5110131;28;19908;-70
2021/11/24 10:56:35;;;;;;;0.63;0.40;;;;;;;;;;5108922;28;20031;-68
2021/11/24 10:59:17;;;;;;;1.83;0.52;;;;;;;;;;5108337;28;20020;-68
2021/11/24 11:01:44;;;;;;;0.68;0.60;;;;;;;;;;5101246;28;20110;-69
2021/11/24 11:04:11;;;;;;;0.60;0.50;;;;;;;;;;5093186;28;20067;-68
2021/11/24 11:06:38;;;;;;;1.27;0.60;;;;;;;;;;5103995;28;20019;-67
2021/11/24 11:09:04;;;;;;;0.43;0.40;;;;;;;;;;5107293;28;20023;-68
2021/11/24 11:11:31;;;;;;;1.88;0.50;;;;;;;;;;5106430;28;20016;-68
2021/11/24 11:14:16;;;;;;;0.70;0.50;;;;;;;;;;5106863;28;20073;-68
2021/11/24 11:16:43;;;;;;;0.68;0.68;;;;;;;;;;5106617;28;20026;-68
2021/11/24 11:19:09;;;;;;;2.83;0.70;;;;;;;;;;5109863;28;20042;-67
2021/11/24 11:21:36;;;;;;;1.65;0.90;;;;;;;;;;5095597;28;20479;-68
2021/11/24 11:24:08;;;;;;;1.10;0.50;;;;;;;;;;5096058;28;20051;-68
2021/11/24 11:26:34;;;;;;;4.22;0.65;;;;;;;;;;5103301;28;20024;-68
2021/11/24 11:29:00;;;;;;;0.95;0.77;;;;;;;;;;5108607;28;20528;-68
2021/11/24 11:31:29;;;;;;;0.85;0.57;;;;;;;;;;5110779;28;20122;-69
2021/11/24 11:33:56;;;;;;;0.57;0.47;;;;;;;;;;5110724;27;20344;-69
2021/11/24 11:36:23;;;;;;;1.38;0.70;;;;;;;;;;5107071;28;20069;-69
2021/11/24 11:38:50;;;;;;;0.60;0.40;;;;;;;;;;5108268;28;20103;-69
2021/11/24 11:41:17;;;;;;;3.35;0.60;;;;;;;;;;5101705;28;20400;-68
2021/11/24 11:43:44;;;;;;;3.30;0.70;;;;;;;;;;5098060;28;20537;-68
2021/11/24 11:46:14;;;;;;;0.82;0.60;;;;;;;;;;5102322;28;20020;-67
2021/11/24 11:48:42;;;;;;;0.70;0.40;;;;;;;;;;5103165;28;20020;-72
2021/11/24 11:51:08;;;;;;;1.10;0.60;;;;;;;;;;5103120;28;20024;-72
2021/11/24 11:53:38;;;;;;;0.70;0.50;;;;;;;;;;5104637;28;20055;-72
2021/11/24 11:56:11;;;;;;;0.70;0.50;;;;;;;;;;5099485;28;20432;-72
2021/11/24 11:58:48;;;;;;;0.50;0.50;;;;;;;;;;5109189;28;20054;-66
2021/11/24 12:01:15;;;;;;;1.38;0.63;;;;;;;;;;5103073;28;20643;-66
2021/11/24 12:03:53;;;;;;;0.87;0.60;;;;;;;;;;5099856;28;20032;-68
2021/11/24 12:06:20;;;;;;;;;;;;;;;;;;5086344;28;20039;-67
2021/11/24 12:09:04;;;;;;;0.47;0.40;;;;;;;;;;5082068;28;19914;-69
2021/11/24 12:11:49;;;;;;;1.13;0.57;;;;;;;;;;5102475;28;20437;-69
2021/11/24 12:14:34;;;;;;;3.17;1.00;;;;;;;;;;5104021;28;20031;-68
2021/11/24 12:17:00;;;;;;;0.85;0.60;;;;;;;;;;5102745;28;20028;-68
2021/11/24 12:19:34;;;;;;;1.48;0.73;;;;;;;;;;5096894;28;20059;-68
2021/11/24 12:22:00;;;;;;;1.27;0.70;;;;;;;;;;5096082;28;20091;-69
2021/11/24 12:24:37;;;;;;;0.82;0.60;;;;;;;;;;5106285;28;20119;-69
2021/11/24 12:27:04;;;;;;;2.45;0.60;;;;;;;;;;5093563;28;20131;-68
2021/11/24 12:29:49;;;;;;;0.70;0.50;;;;;;;;;;5104857;28;20027;-68
2021/11/24 12:32:17;;;;;;;0.57;0.40;;;;;;;;;;5091756;28;20051;-68
2021/11/24 12:34:52;;;;;;;1.95;0.60;;;;;;;;;;5108145;28;20106;-69
2021/11/24 12:37:21;;;;;;;0.77;0.60;;;;;;;;;;5107390;28;20035;-68
2021/11/24 12:39:48;;;;;;;0.60;0.50;;;;;;;;;;5107452;28;20058;-70
2021/11/24 12:42:14;;;;;;;2.17;0.70;;;;;;;;;;5105471;28;20107;-70
2021/11/24 12:44:51;;;;;;;1.35;0.70;;;;;;;;;;5104700;28;20058;-68
2021/11/24 12:47:20;;;;;;;0.93;0.60;;;;;;;;;;5101615;28;20100;-70
2021/11/24 12:49:47;;;;;;;1.88;0.57;;;;;;;;;;5108459;28;20430;-68
2021/11/24 12:52:13;;;;;;;2.55;0.63;;;;;;;;;;5110293;28;20058;-68
2021/11/24 12:54:41;;;;;;;3.75;0.68;;;;;;;;;;5107997;28;20115;-67
2021/11/24 12:57:08;;;;;;;1.40;1.00;;;;;;;;;;5086136;28;20106;-68
2021/11/24 12:59:35;;;;;;;3.13;1.00;;;;;;;;;;5105898;28;20119;-68
2021/11/24 13:02:05;;;;;;;3.58;1.08;;;;;;;;;;5106680;28;20280;-69
2021/11/24 13:04:36;;;;;;;2.38;0.93;;;;;;;;;;5109006;28;20035;-67
2021/11/24 13:07:03;;;;;;;2.88;0.90;;;;;;;;;;5108556;28;20062;-68
2021/11/24 13:09:33;;;;;;;1.50;0.90;;;;;;;;;;5106314;28;20032;-68
2021/11/24 13:12:00;;;;;;;1.02;0.77;;;;;;;;;;5110397;28;20028;-68
2021/11/24 13:14:37;;;;;;;1.95;0.90;;;;;;;;;;5109718;28;20405;-68
2021/11/24 13:17:08;;;;;;;0.88;0.70;;;;;;;;;;5110725;28;20020;-67
2021/11/24 13:19:47;;;;;;;1.38;0.90;;;;;;;;;;5112440;28;20053;-68
2021/11/24 13:22:15;;;;;;;2.28;0.70;;;;;;;;;;5113675;28;20095;-68
2021/11/24 13:24:43;;;;;;;1.02;0.80;;;;;;;;;;5107744;28;20054;-68
2021/11/24 13:27:09;;;;;;;1.88;0.93;;;;;;;;;;5104240;28;20089;-69
2021/11/24 13:29:36;;;;;;;3.30;1.25;;;;;;;;;;5109327;28;20019;-69
2021/11/24 13:32:03;;;;;;;2.15;1.17;;;;;;;;;;5108284;28;20063;-69
2021/11/24 13:34:29;;;;;;;2.22;1.23;;;;;;;;;;5108692;28;20035;-68
2021/11/24 13:36:56;;;;;;;2.95;1.65;;;;;;;;;;5108431;28;20084;-67
2021/11/24 13:39:26;;;;;;;2.60;1.52;;;;;;;;;;5108454;28;20027;-66
2021/11/24 13:41:52;;;;;;;2.17;1.20;;;;;;;;;;5109040;28;20088;-66
2021/11/24 13:44:18;;;;;;;3.72;1.55;;;;;;;;;;5109981;28;20043;-66
2021/11/24 13:46:49;;;;;;;3.38;1.58;;;;;;;;;;5111063;28;20039;-68
2021/11/24 13:49:27;;;;;;;2.53;1.50;;;;;;;;;;5113441;28;20020;-68
2021/11/24 13:52:01;;;;;;;5.13;1.60;;;;;;;;;;5111130;28;20088;-68
2021/11/24 13:54:27;;;;;;;5.88;1.80;;;;;;;;;;5106799;28;20027;-71
2021/11/24 13:56:56;;;;;;;2.70;1.42;;;;;;;;;;5108558;28;20054;-70
2021/11/24 13:59:23;;;;;;;3.50;2.00;;;;;;;;;;5109294;28;20104;-70
2021/11/24 14:01:50;;;;;;;3.78;2.15;;;;;;;;;;5091788;28;20020;-70
2021/11/24 14:04:20;;;;;;;4.30;2.60;;;;;;;;;;5110145;28;20414;-71
2021/11/24 14:06:48;;;;;;;3.80;2.20;;;;;;;;;;5109711;28;20119;-70
2021/11/24 14:09:29;;;;;;;5.18;2.60;;;;;;;;;;5108017;28;20088;-67
2021/11/24 14:11:58;;;;;;;5.38;2.92;;;;;;;;;;5107266;28;20027;-68
2021/11/24 14:14:27;;;;;;;8.82;3.38;;;;;;;;;;5107100;28;20023;-69
2021/11/24 14:16:57;;;;;;;15.07;7.18;;;;;;;;;;5108818;28;20470;-69
2021/11/24 14:19:23;;;;;;;10.73;4.47;;;;;;;;;;5112929;28;20034;-70
2021/11/24 14:21:51;;;;;;;7.45;4.22;;;;;;;;;;5109472;28;20464;-69
2021/11/24 14:24:17;;;;;;;8.23;3.70;;;;;;;;;;5110410;28;20038;-69
2021/11/24 14:26:43;;;;;;;7.80;3.80;;;;;;;;;;5108681;28;20271;-69
2021/11/24 14:29:09;;;;;;;7.90;3.90;;;;;;;;;;5109590;28;20020;-69
2021/11/24 14:31:35;;;;;;;7.10;3.55;;;;;;;;;;5108637;28;20522;-69
2021/11/24 14:34:01;;;;;;;10.40;3.50;;;;;;;;;;5109712;28;20040;-69
2021/11/24 14:36:30;;;;;;;6.85;3.08;;;;;;;;;;5108544;28;20016;-70
2021/11/24 14:38:56;;;;;;;7.68;3.70;;;;;;;;;;5109139;28;20110;-71
2021/11/24 14:41:22;;;;;;;6.15;3.95;;;;;;;;;;5109499;28;20166;-67